createdAt,value
2019-03-15T00:01:41.336Z,4.20
2019-03-15T00:04:10.589Z,4.25
2019-03-15T00:06:39.881Z,4.22
2019-03-15T00:09:09.448Z,4.24
2019-03-15T00:11:38.819Z,4.27
2019-03-15T00:14:08.127Z,4.31
2019-03-15T00:16:37.636Z,4.35
2019-03-15T00:19:06.939Z,4.31
2019-03-15T00:21:36.182Z,4.29
2019-03-15T00:24:05.499Z,4.26
2019-03-15T00:26:34.783Z,4.22
2019-03-15T00:29:04.186Z,4.18
2019-03-15T00:31:33.513Z,4.17
2019-03-15T00:34:03.079Z,4.12
2019-03-15T00:36:32.306Z,4.09
2019-03-15T00:39:01.640Z,4.05
2019-03-15T00:41:30.986Z,4.02
2019-03-15T00:44:00.273Z,3.97
2019-03-15T00:46:29.599Z,3.96
2019-03-15T00:48:58.924Z,3.95
2019-03-15T00:51:28.227Z,3.93
2019-03-15T00:53:57.480Z,3.87
2019-03-15T00:56:26.756Z,3.85
2019-03-15T00:58:56.010Z,3.78
2019-03-15T01:01:25.328Z,3.74
2019-03-15T01:03:54.892Z,3.74
2019-03-15T01:06:24.381Z,3.67
2019-03-15T01:08:53.683Z,3.62
2019-03-15T01:11:22.963Z,3.57
2019-03-15T01:13:52.647Z,3.50
2019-03-15T01:16:21.922Z,3.49
2019-03-15T01:18:51.557Z,3.49
2019-03-15T01:21:20.934Z,3.52
2019-03-15T01:23:50.250Z,3.58
2019-03-15T01:26:19.615Z,3.61
2019-03-15T01:28:49.154Z,3.66
2019-03-15T01:31:18.403Z,3.69
2019-03-15T01:33:47.703Z,3.76
2019-03-15T01:36:17.010Z,3.74
2019-03-15T01:38:46.260Z,3.77
2019-03-15T01:41:15.597Z,3.80
2019-03-15T01:43:44.989Z,3.83
2019-03-15T01:46:14.374Z,3.87
2019-03-15T01:48:43.701Z,3.91
2019-03-15T01:51:12.904Z,3.89
2019-03-15T01:53:42.257Z,3.91
2019-03-15T01:56:11.608Z,3.95
2019-03-15T01:58:40.871Z,3.96
2019-03-15T02:01:10.122Z,3.94
2019-03-15T02:03:39.648Z,3.94
2019-03-15T02:06:09.008Z,3.95
2019-03-15T02:08:38.300Z,3.96
2019-03-15T02:11:07.632Z,4.00
2019-03-15T02:13:36.976Z,3.99
2019-03-15T02:16:06.311Z,3.97
2019-03-15T02:18:35.688Z,4.00
2019-03-15T02:21:05.033Z,3.98
2019-03-15T02:23:34.286Z,3.99
2019-03-15T02:26:03.530Z,3.97
2019-03-15T02:28:32.849Z,3.95
2019-03-15T02:31:02.239Z,3.99
2019-03-15T02:33:33.408Z,3.97
2019-03-15T02:36:02.583Z,3.99
2019-03-15T02:38:31.915Z,3.98
2019-03-15T02:41:01.201Z,4.03
2019-03-15T02:43:30.482Z,3.93
2019-03-15T02:45:59.758Z,3.91
2019-03-15T02:48:29.055Z,3.94
2019-03-15T02:50:58.389Z,3.95
2019-03-15T02:53:27.699Z,3.96
2019-03-15T02:55:57.038Z,4.06
2019-03-15T02:58:27.883Z,4.05
2019-03-15T03:00:57.324Z,3.99
2019-03-15T03:03:26.556Z,3.93
2019-03-15T03:05:55.810Z,3.90
2019-03-15T03:08:25.099Z,3.88
2019-03-15T03:10:55.929Z,3.92
2019-03-15T03:13:25.550Z,3.95
2019-03-15T03:15:54.796Z,3.85
2019-03-15T03:18:24.124Z,3.81
2019-03-15T03:20:53.677Z,3.79
2019-03-15T03:23:23.038Z,3.79
2019-03-15T03:25:52.327Z,3.81
2019-03-15T03:28:21.688Z,3.84
2019-03-15T03:30:50.971Z,3.86
2019-03-15T03:33:20.226Z,3.82
2019-03-15T03:35:49.501Z,3.81
2019-03-15T03:38:18.761Z,3.82
2019-03-15T03:40:48.089Z,3.84
2019-03-15T03:43:17.495Z,3.83
2019-03-15T03:45:46.801Z,3.82
2019-03-15T03:48:16.095Z,3.81
2019-03-15T03:50:45.398Z,3.78
2019-03-15T03:53:14.662Z,3.80
2019-03-15T03:55:43.913Z,3.85
2019-03-15T03:58:13.279Z,3.86
2019-03-15T04:00:42.608Z,3.88
2019-03-15T04:03:11.875Z,3.87
2019-03-15T04:05:41.316Z,3.88
2019-03-15T04:08:10.753Z,3.91
2019-03-15T04:10:40.023Z,3.91
2019-03-15T04:13:09.309Z,3.91
2019-03-15T04:15:38.654Z,3.90
2019-03-15T04:18:07.916Z,3.91
2019-03-15T04:20:37.315Z,3.93
2019-03-15T04:23:06.681Z,3.93
2019-03-15T04:25:36.342Z,3.99
2019-03-15T04:28:05.607Z,4.03
2019-03-15T04:30:35.004Z,4.05
2019-03-15T04:33:04.297Z,4.06
2019-03-15T04:35:33.639Z,3.99
2019-03-15T04:38:02.934Z,4.04
2019-03-15T04:40:32.200Z,4.03
2019-03-15T04:43:01.459Z,4.03
2019-03-15T04:45:30.812Z,4.03
2019-03-15T04:48:00.079Z,4.01
2019-03-15T04:50:29.369Z,3.99
2019-03-15T04:52:58.731Z,4.01
2019-03-15T04:55:28.051Z,3.98
2019-03-15T04:57:57.444Z,4.08
2019-03-15T05:00:26.722Z,4.07
2019-03-15T05:02:55.958Z,4.11
2019-03-15T05:05:25.255Z,4.08
2019-03-15T05:07:54.540Z,4.06
2019-03-15T05:10:23.858Z,4.03
2019-03-15T05:12:53.185Z,4.00
2019-03-15T05:15:22.526Z,4.01
2019-03-15T05:17:51.812Z,3.99
2019-03-15T05:20:21.422Z,4.06
2019-03-15T05:22:50.743Z,4.07
2019-03-15T05:25:20.031Z,4.03
2019-03-15T05:27:49.532Z,4.02
2019-03-15T05:30:18.849Z,4.04
2019-03-15T05:32:48.244Z,3.99
2019-03-15T05:35:17.499Z,4.02
2019-03-15T05:37:46.906Z,3.98
2019-03-15T05:40:16.276Z,3.98
2019-03-15T05:42:45.539Z,3.98
2019-03-15T05:45:14.796Z,3.99
2019-03-15T05:47:44.154Z,4.03
2019-03-15T05:50:13.630Z,3.99
2019-03-15T05:52:42.930Z,4.00
2019-03-15T05:55:12.532Z,3.98
2019-03-15T05:57:41.776Z,3.98
2019-03-15T06:00:12.488Z,4.02
2019-03-15T06:02:41.823Z,4.05
2019-03-15T06:05:11.271Z,4.07
2019-03-15T06:07:40.585Z,4.12
2019-03-15T06:10:10.063Z,4.20
2019-03-15T06:12:39.310Z,4.25
2019-03-15T06:15:08.709Z,4.33
2019-03-15T06:17:38.036Z,4.39
2019-03-15T06:20:07.715Z,4.38
2019-03-15T06:22:37.056Z,4.41
2019-03-15T06:25:06.879Z,4.43
2019-03-15T06:27:36.210Z,4.45
2019-03-15T06:30:05.850Z,4.47
2019-03-15T06:32:35.076Z,4.52
2019-03-15T06:35:04.901Z,4.56
2019-03-15T06:37:34.202Z,4.62
2019-03-15T06:40:03.583Z,4.67
2019-03-15T06:42:32.931Z,4.75
2019-03-15T06:45:02.310Z,4.83
2019-03-15T06:47:31.865Z,4.87
2019-03-15T06:50:01.204Z,4.99
2019-03-15T06:52:30.516Z,5.09
2019-03-15T06:55:00.118Z,5.11
2019-03-15T06:57:29.538Z,5.18
2019-03-15T06:59:59.715Z,5.24
2019-03-15T07:02:29.069Z,5.27
2019-03-15T07:04:58.388Z,5.29
2019-03-15T07:07:27.730Z,5.34
2019-03-15T07:09:57.024Z,5.36
2019-03-15T07:12:26.270Z,5.39
2019-03-15T07:14:55.568Z,5.49
2019-03-15T07:17:25.083Z,5.59
2019-03-15T07:19:54.676Z,5.74
2019-03-15T07:22:24.092Z,5.89
2019-03-15T07:24:53.337Z,5.94
2019-03-15T07:27:22.670Z,6.00
2019-03-15T07:29:52.082Z,6.08
2019-03-15T07:32:21.704Z,6.20
2019-03-15T07:34:51.044Z,6.53
2019-03-15T07:37:21.481Z,6.68
2019-03-15T07:39:50.830Z,6.91
2019-03-15T07:42:20.110Z,6.87
2019-03-15T07:44:49.393Z,6.93
2019-03-15T07:47:18.634Z,6.97
2019-03-15T07:49:47.969Z,6.95
2019-03-15T07:52:17.315Z,6.81
2019-03-15T07:54:46.628Z,6.70
2019-03-15T07:57:16.136Z,6.89
2019-03-15T07:59:45.570Z,6.87
2019-03-15T08:02:14.808Z,7.20
2019-03-15T08:04:44.077Z,7.53
2019-03-15T08:07:13.339Z,7.90
2019-03-15T08:09:42.921Z,8.26
2019-03-15T08:12:12.265Z,8.43
2019-03-15T08:14:41.574Z,8.22
2019-03-15T08:17:10.856Z,7.84
2019-03-15T08:19:40.171Z,7.75
2019-03-15T08:22:09.426Z,7.71
2019-03-15T08:24:50.771Z,7.72
2019-03-15T08:27:09.701Z,7.63
2019-03-15T08:29:39.029Z,7.52
2019-03-15T08:32:08.383Z,7.22
2019-03-15T08:34:37.845Z,7.15
2019-03-15T08:37:07.151Z,7.19
2019-03-15T08:39:36.484Z,7.18
2019-03-15T08:42:05.812Z,7.39
2019-03-15T08:44:35.109Z,7.50
2019-03-15T08:47:04.434Z,7.60
2019-03-15T08:49:33.701Z,7.53
2019-03-15T08:52:04.143Z,7.10
2019-03-15T08:54:33.556Z,7.05
2019-03-15T08:57:02.858Z,7.06
2019-03-15T08:59:32.325Z,7.27
2019-03-15T09:02:01.652Z,7.39
2019-03-15T09:04:30.952Z,7.60
2019-03-15T09:07:00.527Z,8.08
2019-03-15T09:09:29.817Z,8.12
2019-03-15T09:11:59.179Z,8.34
2019-03-15T09:14:28.435Z,8.80
2019-03-15T09:16:57.705Z,9.12
2019-03-15T09:19:27.000Z,9.31
2019-03-15T09:21:56.340Z,9.03
2019-03-15T09:24:25.672Z,9.00
2019-03-15T09:26:55.182Z,8.78
2019-03-15T09:29:24.476Z,8.50
2019-03-15T09:32:05.247Z,8.27
2019-03-15T09:34:24.921Z,7.96
2019-03-15T09:36:54.429Z,7.51
2019-03-15T09:39:23.794Z,7.42
2019-03-15T09:41:53.075Z,7.26
2019-03-15T09:44:22.383Z,7.36
2019-03-15T09:46:51.719Z,7.45
2019-03-15T09:49:21.011Z,7.15
2019-03-15T09:51:50.345Z,6.96
2019-03-15T09:54:19.681Z,6.91
2019-03-15T09:56:48.996Z,6.91
2019-03-15T09:59:19.531Z,6.96
2019-03-15T10:01:48.800Z,6.76
2019-03-15T10:04:18.091Z,6.74
2019-03-15T10:06:47.406Z,6.65
2019-03-15T10:09:16.716Z,6.53
2019-03-15T10:11:46.020Z,6.41
2019-03-15T10:14:15.354Z,6.41
2019-03-15T10:16:44.652Z,6.42
2019-03-15T10:19:13.853Z,6.59
2019-03-15T10:21:43.145Z,7.00
2019-03-15T10:24:15.502Z,7.69
2019-03-15T10:26:43.417Z,7.55
2019-03-15T10:29:15.730Z,7.78
2019-03-15T10:31:43.758Z,8.52
2019-03-15T10:34:13.058Z,9.57
2019-03-15T10:36:42.384Z,9.55
2019-03-15T10:39:11.828Z,9.52
2019-03-15T10:41:41.076Z,8.85
2019-03-15T10:44:10.332Z,7.90
2019-03-15T10:46:40.504Z,7.74
2019-03-15T10:49:09.936Z,7.54
2019-03-15T10:51:39.258Z,7.66
2019-03-15T10:54:08.596Z,7.79
2019-03-15T10:56:37.903Z,7.65
2019-03-15T10:59:07.191Z,7.62
2019-03-15T11:01:36.486Z,7.57
2019-03-15T11:04:05.760Z,7.57
2019-03-15T11:06:35.066Z,7.56
2019-03-15T11:09:04.777Z,7.59
2019-03-15T11:11:34.112Z,7.51
2019-03-15T11:14:03.378Z,7.60
2019-03-15T11:16:32.644Z,7.68
2019-03-15T11:19:01.990Z,7.42
2019-03-15T11:21:31.303Z,7.41
2019-03-15T11:24:00.629Z,7.31
2019-03-15T11:26:29.949Z,7.29
2019-03-15T11:28:59.227Z,7.24
2019-03-15T11:31:28.541Z,7.07
2019-03-15T11:33:57.830Z,6.97
2019-03-15T11:36:27.062Z,6.81
2019-03-15T11:38:56.389Z,6.66
2019-03-15T11:41:25.944Z,6.55
2019-03-15T11:43:55.257Z,6.48
2019-03-15T11:46:24.520Z,6.45
2019-03-15T11:48:53.798Z,6.49
2019-03-15T11:51:23.051Z,6.57
2019-03-15T11:53:52.358Z,6.98
2019-03-15T11:56:26.990Z,7.31
2019-03-15T11:58:52.712Z,7.60
2019-03-15T12:01:22.076Z,7.54
2019-03-15T12:03:53.237Z,7.62
2019-03-15T12:06:22.483Z,7.66
2019-03-15T12:08:51.813Z,7.70
2019-03-15T12:11:21.064Z,7.72
2019-03-15T12:13:50.343Z,7.95
2019-03-15T12:16:19.602Z,8.02
2019-03-15T12:18:48.909Z,8.06
2019-03-15T12:21:18.756Z,8.02
2019-03-15T12:23:48.130Z,7.88
2019-03-15T12:26:17.398Z,7.80
2019-03-15T12:28:46.714Z,7.67
2019-03-15T12:31:16.038Z,7.55
2019-03-15T12:33:45.345Z,7.48
2019-03-15T12:36:14.660Z,7.36
2019-03-15T12:38:43.927Z,7.36
2019-03-15T12:41:13.242Z,7.30
2019-03-15T12:43:42.595Z,7.22
2019-03-15T12:46:11.866Z,7.15
2019-03-15T12:48:41.231Z,7.14
2019-03-15T12:51:10.775Z,7.12
2019-03-15T12:53:40.058Z,7.03
2019-03-15T12:56:11.031Z,7.12
2019-03-15T12:58:40.645Z,7.05
2019-03-15T13:01:09.916Z,7.01
2019-03-15T13:03:39.153Z,7.06
2019-03-15T13:06:08.644Z,7.15
2019-03-15T13:08:38.051Z,7.16
2019-03-15T13:11:07.431Z,7.11
2019-03-15T13:13:36.743Z,7.12
2019-03-15T13:16:06.149Z,6.96
2019-03-15T13:18:35.433Z,6.83
2019-03-15T13:21:04.749Z,6.77
2019-03-15T13:23:34.121Z,6.66
2019-03-15T13:26:03.423Z,6.69
2019-03-15T13:28:32.769Z,6.70
2019-03-15T13:31:02.104Z,6.68
2019-03-15T13:33:31.426Z,6.71
2019-03-15T13:36:00.839Z,6.75
2019-03-15T13:38:30.099Z,6.74
2019-03-15T13:40:59.362Z,6.77
2019-03-15T13:43:28.617Z,6.84
2019-03-15T13:45:57.974Z,6.84
2019-03-15T13:48:27.319Z,6.80
2019-03-15T13:50:56.604Z,6.91
2019-03-15T13:53:25.834Z,6.84
2019-03-15T13:55:55.151Z,6.85
2019-03-15T13:58:24.524Z,6.85
2019-03-15T14:00:53.909Z,6.85
2019-03-15T14:03:23.208Z,6.86
2019-03-15T14:05:52.553Z,6.86
2019-03-15T14:08:21.951Z,6.89
2019-03-15T14:10:51.203Z,6.92
2019-03-15T14:13:20.503Z,6.92
2019-03-15T14:15:49.741Z,7.00
2019-03-15T14:18:21.592Z,6.96
2019-03-15T14:20:50.189Z,6.95
2019-03-15T14:23:19.492Z,7.02
2019-03-15T14:25:49.061Z,7.00
2019-03-15T14:28:18.301Z,6.89
2019-03-15T14:30:47.593Z,6.80
2019-03-15T14:33:16.860Z,6.58
2019-03-15T14:35:46.191Z,6.29
2019-03-15T14:38:15.776Z,6.18
2019-03-15T14:40:45.241Z,6.08
2019-03-15T14:43:14.817Z,5.93
2019-03-15T14:45:44.131Z,5.91
2019-03-15T14:48:13.701Z,5.81
2019-03-15T14:50:42.950Z,5.66
2019-03-15T14:53:12.208Z,5.64
2019-03-15T14:55:41.517Z,5.65
2019-03-15T14:58:10.849Z,5.48
2019-03-15T15:00:40.183Z,5.50
2019-03-15T15:03:09.513Z,5.48
2019-03-15T15:05:38.792Z,5.39
2019-03-15T15:08:08.123Z,5.24
2019-03-15T15:10:37.582Z,5.25
2019-03-15T15:13:06.904Z,5.14
2019-03-15T15:15:36.213Z,5.09
2019-03-15T15:18:05.511Z,5.03
2019-03-15T15:20:34.815Z,4.93
2019-03-15T15:23:06.691Z,4.94
2019-03-15T15:25:35.944Z,4.92
2019-03-15T15:28:05.279Z,4.92
2019-03-15T15:30:34.576Z,4.98
2019-03-15T15:33:03.881Z,4.94
2019-03-15T15:35:33.226Z,4.87
2019-03-15T15:38:02.508Z,4.90
2019-03-15T15:40:31.726Z,4.92
2019-03-15T15:43:01.014Z,4.93
2019-03-15T15:45:30.317Z,4.95
2019-03-15T15:47:59.662Z,4.95
2019-03-15T15:50:28.999Z,4.92
2019-03-15T15:52:58.379Z,4.87
2019-03-15T15:55:27.682Z,4.91
2019-03-15T15:57:56.915Z,4.94
2019-03-15T16:00:26.240Z,4.90
2019-03-15T16:02:55.565Z,4.83
2019-03-15T16:05:24.833Z,4.83
2019-03-15T16:07:56.457Z,4.79
2019-03-15T16:10:25.248Z,4.72
2019-03-15T16:12:54.708Z,4.69
2019-03-15T16:15:24.003Z,4.55
2019-03-15T16:17:53.326Z,4.51
2019-03-15T16:20:22.659Z,4.33
2019-03-15T16:22:51.899Z,4.30
2019-03-15T16:25:21.197Z,4.24
2019-03-15T16:27:50.520Z,4.14
2019-03-15T16:30:19.911Z,4.11
2019-03-15T16:32:49.383Z,3.98
2019-03-15T16:35:18.763Z,3.78
2019-03-15T16:37:48.133Z,3.64
2019-03-15T16:40:17.503Z,3.38
2019-03-15T16:42:46.964Z,3.23
2019-03-15T16:45:16.546Z,3.12
2019-03-15T16:47:45.863Z,3.06
2019-03-15T16:50:15.380Z,2.87
2019-03-15T16:52:44.995Z,2.80
2019-03-15T16:55:14.275Z,2.71
2019-03-15T16:57:43.500Z,2.67
2019-03-15T17:00:13.233Z,2.60
2019-03-15T17:02:42.509Z,2.53
2019-03-15T17:05:11.902Z,2.55
2019-03-15T17:07:41.261Z,2.45
2019-03-15T17:10:10.895Z,2.39
2019-03-15T17:12:40.210Z,2.35
2019-03-15T17:15:10.917Z,2.29
2019-03-15T17:17:40.242Z,2.28
2019-03-15T17:20:10.276Z,2.31
2019-03-15T17:22:39.511Z,2.38
2019-03-15T17:25:09.506Z,2.47
2019-03-15T17:27:38.830Z,2.55
2019-03-15T17:30:10.406Z,2.55
2019-03-15T17:32:40.024Z,2.56
2019-03-15T17:35:11.020Z,2.56
2019-03-15T17:37:40.308Z,2.57
2019-03-15T17:40:11.505Z,2.63
2019-03-15T17:42:40.884Z,2.68
2019-03-15T17:45:10.377Z,2.67
2019-03-15T17:47:39.723Z,2.70
2019-03-15T17:50:12.217Z,2.69
2019-03-15T17:52:41.496Z,2.75
2019-03-15T17:55:11.003Z,2.75
2019-03-15T17:57:40.515Z,2.66
2019-03-15T18:00:16.135Z,2.62
2019-03-15T18:02:45.609Z,2.60
2019-03-15T18:05:15.316Z,2.58
2019-03-15T18:07:44.768Z,2.68
2019-03-15T18:10:14.313Z,2.68
2019-03-15T18:12:43.663Z,2.70
2019-03-15T18:15:13.368Z,2.72
2019-03-15T18:17:42.839Z,2.76
2019-03-15T18:20:12.202Z,2.79
2019-03-15T18:22:41.525Z,2.80
2019-03-15T18:25:12.538Z,2.85
2019-03-15T18:27:41.845Z,2.90
2019-03-15T18:30:11.816Z,2.93
2019-03-15T18:32:41.129Z,2.94
2019-03-15T18:35:11.334Z,2.96
2019-03-15T18:37:40.635Z,2.98
2019-03-15T18:40:11.342Z,2.94
2019-03-15T18:42:40.750Z,2.91
2019-03-15T18:45:11.543Z,2.93
2019-03-15T18:47:40.884Z,2.96
2019-03-15T18:50:13.379Z,2.95
2019-03-15T18:52:42.753Z,2.97
2019-03-15T18:55:12.176Z,2.96
2019-03-15T18:57:41.517Z,2.97
2019-03-15T19:00:13.718Z,3.00
2019-03-15T19:02:43.032Z,2.99
2019-03-15T19:05:12.637Z,3.00
2019-03-15T19:07:41.910Z,3.02
2019-03-15T19:10:12.024Z,3.07
2019-03-15T19:12:41.356Z,3.10
2019-03-15T19:15:11.874Z,3.14
2019-03-15T19:17:41.156Z,3.14
2019-03-15T19:20:10.430Z,3.11
2019-03-15T19:22:39.702Z,3.10
2019-03-15T19:25:09.264Z,3.08
2019-03-15T19:27:38.621Z,3.09
2019-03-15T19:30:08.975Z,3.09
2019-03-15T19:32:38.334Z,3.09
2019-03-15T19:35:08.228Z,3.02
2019-03-15T19:37:37.807Z,2.89
2019-03-15T19:40:08.240Z,2.84
2019-03-15T19:42:37.563Z,2.75
2019-03-15T19:45:07.792Z,2.61
2019-03-15T19:47:37.144Z,2.58
2019-03-15T19:50:07.914Z,2.54
2019-03-15T19:52:37.196Z,2.55
2019-03-15T19:55:07.276Z,2.50
2019-03-15T19:57:36.620Z,2.50
2019-03-15T20:00:08.514Z,2.46
2019-03-15T20:02:37.660Z,2.44
2019-03-15T20:05:06.989Z,2.37
2019-03-15T20:07:36.690Z,2.37
2019-03-15T20:10:06.479Z,2.37
2019-03-15T20:12:35.779Z,2.29
2019-03-15T20:15:05.446Z,2.26
2019-03-15T20:17:34.775Z,2.11
2019-03-15T20:20:04.440Z,2.04
2019-03-15T20:22:33.759Z,1.98
2019-03-15T20:25:03.034Z,1.83
2019-03-15T20:27:32.342Z,1.75
2019-03-15T20:30:01.722Z,1.66
2019-03-15T20:32:30.999Z,1.65
2019-03-15T20:35:00.341Z,1.66
2019-03-15T20:37:29.719Z,1.71
2019-03-15T20:39:59.050Z,1.74
2019-03-15T20:42:28.372Z,1.78
2019-03-15T20:44:57.684Z,1.81
2019-03-15T20:47:26.961Z,1.81
2019-03-15T20:49:56.247Z,1.81
2019-03-15T20:52:25.558Z,1.71
2019-03-15T20:54:54.856Z,1.73
2019-03-15T20:57:24.238Z,1.77
2019-03-15T20:59:53.526Z,1.76
2019-03-15T21:02:22.844Z,1.73
2019-03-15T21:04:52.244Z,1.73
2019-03-15T21:07:21.519Z,1.72
2019-03-15T21:09:50.776Z,1.78
2019-03-15T21:12:20.063Z,1.77
2019-03-15T21:14:49.381Z,1.81
2019-03-15T21:17:18.715Z,1.85
2019-03-15T21:19:48.149Z,1.91
2019-03-15T21:22:17.490Z,1.92
2019-03-15T21:24:46.769Z,1.98
2019-03-15T21:27:16.061Z,2.04
2019-03-15T21:29:45.475Z,2.03
2019-03-15T21:32:14.910Z,2.05
2019-03-15T21:34:44.536Z,2.02
2019-03-15T21:37:13.946Z,2.04
2019-03-15T21:39:43.488Z,2.02
2019-03-15T21:42:12.785Z,1.97
2019-03-15T21:44:42.077Z,2.01
2019-03-15T21:47:11.327Z,2.05
2019-03-15T21:49:40.610Z,2.13
2019-03-15T21:52:10.266Z,2.18
2019-03-15T21:54:39.523Z,2.23
2019-03-15T21:57:08.786Z,2.25
2019-03-15T21:59:39.220Z,2.23
2019-03-15T22:02:08.514Z,2.24
2019-03-15T22:04:37.786Z,2.23
2019-03-15T22:07:07.095Z,2.27
2019-03-15T22:09:36.814Z,2.26
2019-03-15T22:12:06.265Z,2.26
2019-03-15T22:14:35.983Z,2.29
2019-03-15T22:17:05.282Z,2.33
2019-03-15T22:19:34.671Z,2.36
2019-03-15T22:22:03.897Z,2.37
2019-03-15T22:24:33.237Z,2.41
2019-03-15T22:27:02.844Z,2.45
2019-03-15T22:29:32.412Z,2.44
2019-03-15T22:32:01.912Z,2.50
2019-03-15T22:34:31.279Z,2.52
2019-03-15T22:37:00.508Z,2.59
2019-03-15T22:39:29.830Z,2.67
2019-03-15T22:41:59.170Z,2.67
2019-03-15T22:44:28.501Z,2.66
2019-03-15T22:46:57.789Z,2.69
2019-03-15T22:49:27.134Z,2.71
2019-03-15T22:51:56.501Z,2.71
2019-03-15T22:54:25.828Z,2.71
2019-03-15T22:56:55.100Z,2.70
2019-03-15T22:59:24.359Z,2.67
2019-03-15T23:01:53.637Z,2.70
2019-03-15T23:04:22.967Z,2.67
2019-03-15T23:06:52.294Z,2.66
2019-03-15T23:09:21.558Z,2.62
2019-03-15T23:11:50.816Z,2.59
2019-03-15T23:14:20.223Z,2.60
2019-03-15T23:16:49.548Z,2.58
2019-03-15T23:19:18.833Z,2.59
2019-03-15T23:21:48.156Z,2.58
2019-03-15T23:24:18.636Z,2.50
2019-03-15T23:26:47.929Z,2.51
2019-03-15T23:29:17.229Z,2.54
2019-03-15T23:31:46.565Z,2.57
2019-03-15T23:34:15.994Z,2.55
2019-03-15T23:36:45.317Z,2.48
2019-03-15T23:39:14.849Z,2.41
2019-03-15T23:41:44.184Z,2.40
2019-03-15T23:44:13.530Z,2.43
2019-03-15T23:46:42.846Z,2.38
2019-03-15T23:49:12.235Z,2.38
2019-03-15T23:51:41.573Z,2.42
2019-03-15T23:54:10.885Z,2.42
2019-03-15T23:56:40.184Z,2.40
2019-03-15T23:59:09.436Z,2.44
